sensor_id;sensor_type;location;lat;lon;timestamp;P1;durP1;ratioP1;P2;durP2;ratioP2
13797;SDS011;6970;51.340;3.240;2023-06-14T00:00:40;4.87;;;3.90;;
13797;SDS011;6970;51.340;3.240;2023-06-14T00:03:10;3.57;;;3.07;;
13797;SDS011;6970;51.340;3.240;2023-06-14T00:05:38;4.67;;;3.80;;
13797;SDS011;6970;51.340;3.240;2023-06-14T00:08:11;5.53;;;3.40;;
13797;SDS011;6970;51.340;3.240;2023-06-14T00:10:39;6.60;;;3.73;;
13797;SDS011;6970;51.340;3.240;2023-06-14T00:13:10;5.00;;;3.97;;
13797;SDS011;6970;51.340;3.240;2023-06-14T00:15:37;3.90;;;3.50;;
13797;SDS011;6970;51.340;3.240;2023-06-14T00:18:05;5.93;;;3.50;;
13797;SDS011;6970;51.340;3.240;2023-06-14T00:20:32;3.47;;;2.90;;
13797;SDS011;6970;51.340;3.240;2023-06-14T00:23:01;6.07;;;3.50;;
13797;SDS011;6970;51.340;3.240;2023-06-14T00:25:28;3.67;;;3.37;;
13797;SDS011;6970;51.340;3.240;2023-06-14T00:27:56;3.37;;;3.07;;
13797;SDS011;6970;51.340;3.240;2023-06-14T00:30:24;5.70;;;3.60;;
13797;SDS011;6970;51.340;3.240;2023-06-14T00:32:51;3.63;;;3.20;;
13797;SDS011;6970;51.340;3.240;2023-06-14T00:35:28;4.83;;;3.20;;
13797;SDS011;6970;51.340;3.240;2023-06-14T00:37:58;5.87;;;3.37;;
13797;SDS011;6970;51.340;3.240;2023-06-14T00:40:29;3.90;;;3.60;;
13797;SDS011;6970;51.340;3.240;2023-06-14T00:42:56;5.87;;;3.30;;
13797;SDS011;6970;51.340;3.240;2023-06-14T00:47:53;4.23;;;3.40;;
13797;SDS011;6970;51.340;3.240;2023-06-14T00:50:22;3.80;;;3.50;;
13797;SDS011;6970;51.340;3.240;2023-06-14T00:55:19;3.83;;;3.40;;
13797;SDS011;6970;51.340;3.240;2023-06-14T01:00:18;4.10;;;3.70;;
13797;SDS011;6970;51.340;3.240;2023-06-14T01:05:19;3.90;;;3.50;;
13797;SDS011;6970;51.340;3.240;2023-06-14T01:13:29;5.97;;;3.60;;
13797;SDS011;6970;51.340;3.240;2023-06-14T01:18:35;4.87;;;3.60;;
13797;SDS011;6970;51.340;3.240;2023-06-14T01:21:06;5.07;;;3.40;;
13797;SDS011;6970;51.340;3.240;2023-06-14T01:23:55;4.77;;;3.67;;
13797;SDS011;6970;51.340;3.240;2023-06-14T01:26:23;5.47;;;3.73;;
13797;SDS011;6970;51.340;3.240;2023-06-14T01:28:50;3.90;;;3.50;;
13797;SDS011;6970;51.340;3.240;2023-06-14T01:31:21;4.77;;;3.37;;
13797;SDS011;6970;51.340;3.240;2023-06-14T01:33:50;5.10;;;3.30;;
13797;SDS011;6970;51.340;3.240;2023-06-14T01:38:52;7.40;;;3.87;;
13797;SDS011;6970;51.340;3.240;2023-06-14T01:41:20;7.83;;;3.47;;
13797;SDS011;6970;51.340;3.240;2023-06-14T01:43:48;5.63;;;3.83;;
13797;SDS011;6970;51.340;3.240;2023-06-14T01:46:17;3.63;;;3.33;;
13797;SDS011;6970;51.340;3.240;2023-06-14T01:48:45;4.00;;;3.70;;
13797;SDS011;6970;51.340;3.240;2023-06-14T01:51:12;6.90;;;3.60;;
13797;SDS011;6970;51.340;3.240;2023-06-14T01:53:40;6.40;;;4.23;;
13797;SDS011;6970;51.340;3.240;2023-06-14T01:56:07;6.10;;;4.20;;
13797;SDS011;6970;51.340;3.240;2023-06-14T01:58:35;6.03;;;4.17;;
13797;SDS011;6970;51.340;3.240;2023-06-14T02:03:34;6.60;;;3.77;;
13797;SDS011;6970;51.340;3.240;2023-06-14T02:06:10;8.17;;;3.60;;
13797;SDS011;6970;51.340;3.240;2023-06-14T02:08:38;4.33;;;3.93;;
13797;SDS011;6970;51.340;3.240;2023-06-14T02:11:09;4.87;;;4.37;;
13797;SDS011;6970;51.340;3.240;2023-06-14T02:13:38;5.13;;;3.60;;
13797;SDS011;6970;51.340;3.240;2023-06-14T02:16:09;5.00;;;3.53;;
13797;SDS011;6970;51.340;3.240;2023-06-14T02:18:37;4.23;;;3.83;;
13797;SDS011;6970;51.340;3.240;2023-06-14T02:23:39;4.83;;;4.00;;
13797;SDS011;6970;51.340;3.240;2023-06-14T02:26:12;4.47;;;4.00;;
13797;SDS011;6970;51.340;3.240;2023-06-14T02:28:41;4.90;;;3.50;;
13797;SDS011;6970;51.340;3.240;2023-06-14T02:31:11;4.63;;;3.40;;
13797;SDS011;6970;51.340;3.240;2023-06-14T02:33:40;4.10;;;3.70;;
13797;SDS011;6970;51.340;3.240;2023-06-14T02:36:08;4.97;;;3.60;;
13797;SDS011;6970;51.340;3.240;2023-06-14T02:38:36;4.70;;;4.00;;
13797;SDS011;6970;51.340;3.240;2023-06-14T02:41:04;4.00;;;3.60;;
13797;SDS011;6970;51.340;3.240;2023-06-14T02:43:33;4.13;;;3.63;;
13797;SDS011;6970;51.340;3.240;2023-06-14T02:46:00;5.23;;;3.83;;
13797;SDS011;6970;51.340;3.240;2023-06-14T02:48:28;5.50;;;3.90;;
13797;SDS011;6970;51.340;3.240;2023-06-14T02:50:56;4.73;;;3.77;;
13797;SDS011;6970;51.340;3.240;2023-06-14T02:55:54;5.07;;;3.80;;
13797;SDS011;6970;51.340;3.240;2023-06-14T02:58:24;4.20;;;3.40;;
13797;SDS011;6970;51.340;3.240;2023-06-14T03:00:52;4.93;;;4.43;;
13797;SDS011;6970;51.340;3.240;2023-06-14T03:03:20;5.27;;;3.50;;
13797;SDS011;6970;51.340;3.240;2023-06-14T03:05:48;4.23;;;3.90;;
13797;SDS011;6970;51.340;3.240;2023-06-14T03:08:23;3.87;;;3.40;;
13797;SDS011;6970;51.340;3.240;2023-06-14T03:10:53;4.40;;;3.50;;
13797;SDS011;6970;51.340;3.240;2023-06-14T03:13:23;4.67;;;3.53;;
13797;SDS011;6970;51.340;3.240;2023-06-14T03:18:23;4.93;;;3.57;;
13797;SDS011;6970;51.340;3.240;2023-06-14T03:20:53;4.57;;;3.83;;
13797;SDS011;6970;51.340;3.240;2023-06-14T03:25:51;4.17;;;3.77;;
13797;SDS011;6970;51.340;3.240;2023-06-14T03:28:25;3.83;;;3.30;;
13797;SDS011;6970;51.340;3.240;2023-06-14T03:30:54;6.27;;;4.20;;
13797;SDS011;6970;51.340;3.240;2023-06-14T03:33:21;3.80;;;3.50;;
13797;SDS011;6970;51.340;3.240;2023-06-14T03:35:49;4.67;;;3.57;;
13797;SDS011;6970;51.340;3.240;2023-06-14T03:38:18;4.33;;;3.50;;
13797;SDS011;6970;51.340;3.240;2023-06-14T03:40:48;4.17;;;3.43;;
13797;SDS011;6970;51.340;3.240;2023-06-14T03:43:16;4.47;;;3.57;;
13797;SDS011;6970;51.340;3.240;2023-06-14T03:45:43;4.73;;;3.93;;
13797;SDS011;6970;51.340;3.240;2023-06-14T03:48:14;4.97;;;3.67;;
13797;SDS011;6970;51.340;3.240;2023-06-14T03:53:11;4.87;;;3.40;;
13797;SDS011;6970;51.340;3.240;2023-06-14T04:00:45;4.03;;;3.70;;
13797;SDS011;6970;51.340;3.240;2023-06-14T04:03:13;4.13;;;3.50;;
13797;SDS011;6970;51.340;3.240;2023-06-14T04:05:42;6.77;;;3.50;;
13797;SDS011;6970;51.340;3.240;2023-06-14T04:10:44;3.63;;;3.20;;
13797;SDS011;6970;51.340;3.240;2023-06-14T04:15:46;5.33;;;3.33;;
13797;SDS011;6970;51.340;3.240;2023-06-14T04:18:13;7.10;;;3.60;;
13797;SDS011;6970;51.340;3.240;2023-06-14T04:20:46;4.57;;;3.93;;
13797;SDS011;6970;51.340;3.240;2023-06-14T04:23:17;4.83;;;3.70;;
13797;SDS011;6970;51.340;3.240;2023-06-14T04:28:29;3.90;;;3.37;;
13797;SDS011;6970;51.340;3.240;2023-06-14T04:30:57;4.57;;;4.17;;
13797;SDS011;6970;51.340;3.240;2023-06-14T04:33:37;4.43;;;3.70;;
13797;SDS011;6970;51.340;3.240;2023-06-14T04:36:12;6.90;;;4.93;;
13797;SDS011;6970;51.340;3.240;2023-06-14T04:38:41;4.40;;;3.67;;
13797;SDS011;6970;51.340;3.240;2023-06-14T04:41:12;3.93;;;3.33;;
13797;SDS011;6970;51.340;3.240;2023-06-14T04:43:40;4.50;;;3.87;;
13797;SDS011;6970;51.340;3.240;2023-06-14T04:48:43;4.73;;;3.30;;
13797;SDS011;6970;51.340;3.240;2023-06-14T04:51:12;5.47;;;3.43;;
13797;SDS011;6970;51.340;3.240;2023-06-14T04:53:42;6.57;;;3.87;;
13797;SDS011;6970;51.340;3.240;2023-06-14T04:56:13;7.53;;;3.80;;
13797;SDS011;6970;51.340;3.240;2023-06-14T04:58:41;3.83;;;3.50;;
13797;SDS011;6970;51.340;3.240;2023-06-14T05:01:08;4.33;;;3.03;;
13797;SDS011;6970;51.340;3.240;2023-06-14T05:03:37;5.33;;;3.80;;
13797;SDS011;6970;51.340;3.240;2023-06-14T05:06:04;7.30;;;3.97;;
13797;SDS011;6970;51.340;3.240;2023-06-14T05:11:04;4.77;;;3.70;;
13797;SDS011;6970;51.340;3.240;2023-06-14T05:13:37;4.47;;;4.07;;
13797;SDS011;6970;51.340;3.240;2023-06-14T05:16:12;5.27;;;3.70;;
13797;SDS011;6970;51.340;3.240;2023-06-14T05:18:46;6.67;;;3.60;;
13797;SDS011;6970;51.340;3.240;2023-06-14T05:21:13;4.80;;;3.97;;
13797;SDS011;6970;51.340;3.240;2023-06-14T05:23:49;5.63;;;4.00;;
13797;SDS011;6970;51.340;3.240;2023-06-14T05:26:18;4.43;;;3.90;;
13797;SDS011;6970;51.340;3.240;2023-06-14T05:28:48;9.67;;;4.50;;
13797;SDS011;6970;51.340;3.240;2023-06-14T05:31:18;9.10;;;4.43;;
13797;SDS011;6970;51.340;3.240;2023-06-14T05:33:48;6.27;;;3.93;;
13797;SDS011;6970;51.340;3.240;2023-06-14T05:36:16;5.27;;;3.90;;
13797;SDS011;6970;51.340;3.240;2023-06-14T05:38:45;6.13;;;4.03;;
13797;SDS011;6970;51.340;3.240;2023-06-14T05:41:12;4.47;;;4.07;;
13797;SDS011;6970;51.340;3.240;2023-06-14T05:43:39;4.80;;;3.77;;
13797;SDS011;6970;51.340;3.240;2023-06-14T05:46:07;4.20;;;3.80;;
13797;SDS011;6970;51.340;3.240;2023-06-14T05:48:36;5.87;;;3.53;;
13797;SDS011;6970;51.340;3.240;2023-06-14T05:51:03;5.20;;;4.00;;
13797;SDS011;6970;51.340;3.240;2023-06-14T05:53:50;5.37;;;3.93;;
13797;SDS011;6970;51.340;3.240;2023-06-14T05:56:20;4.87;;;3.93;;
13797;SDS011;6970;51.340;3.240;2023-06-14T05:58:49;5.37;;;3.80;;
13797;SDS011;6970;51.340;3.240;2023-06-14T06:01:20;5.50;;;3.70;;
13797;SDS011;6970;51.340;3.240;2023-06-14T06:06:19;6.70;;;3.73;;
13797;SDS011;6970;51.340;3.240;2023-06-14T06:08:47;8.43;;;4.83;;
13797;SDS011;6970;51.340;3.240;2023-06-14T06:11:14;5.93;;;4.77;;
13797;SDS011;6970;51.340;3.240;2023-06-14T06:13:43;7.03;;;4.50;;
13797;SDS011;6970;51.340;3.240;2023-06-14T06:16:13;8.40;;;4.10;;
13797;SDS011;6970;51.340;3.240;2023-06-14T06:18:42;4.43;;;4.03;;
13797;SDS011;6970;51.340;3.240;2023-06-14T06:21:11;5.03;;;4.30;;
13797;SDS011;6970;51.340;3.240;2023-06-14T06:23:39;6.77;;;5.00;;
13797;SDS011;6970;51.340;3.240;2023-06-14T06:26:06;9.70;;;4.50;;
13797;SDS011;6970;51.340;3.240;2023-06-14T06:31:06;7.97;;;4.37;;
13797;SDS011;6970;51.340;3.240;2023-06-14T06:33:35;6.87;;;4.50;;
13797;SDS011;6970;51.340;3.240;2023-06-14T06:36:03;5.63;;;4.00;;
13797;SDS011;6970;51.340;3.240;2023-06-14T06:38:33;8.17;;;4.37;;
13797;SDS011;6970;51.340;3.240;2023-06-14T06:46:01;4.83;;;4.37;;
13797;SDS011;6970;51.340;3.240;2023-06-14T06:48:31;6.63;;;4.30;;
13797;SDS011;6970;51.340;3.240;2023-06-14T06:50:59;7.97;;;4.27;;
13797;SDS011;6970;51.340;3.240;2023-06-14T06:53:26;5.67;;;4.30;;
13797;SDS011;6970;51.340;3.240;2023-06-14T06:58:39;5.27;;;4.50;;
13797;SDS011;6970;51.340;3.240;2023-06-14T07:01:06;5.10;;;4.27;;
13797;SDS011;6970;51.340;3.240;2023-06-14T07:03:36;7.57;;;5.33;;
13797;SDS011;6970;51.340;3.240;2023-06-14T07:06:10;5.60;;;5.00;;
13797;SDS011;6970;51.340;3.240;2023-06-14T07:08:43;7.73;;;4.77;;
13797;SDS011;6970;51.340;3.240;2023-06-14T07:11:14;6.10;;;4.50;;
13797;SDS011;6970;51.340;3.240;2023-06-14T07:13:42;5.23;;;4.70;;
13797;SDS011;6970;51.340;3.240;2023-06-14T07:16:09;9.00;;;4.90;;
13797;SDS011;6970;51.340;3.240;2023-06-14T07:18:38;5.03;;;4.57;;
13797;SDS011;6970;51.340;3.240;2023-06-14T07:21:07;5.17;;;4.57;;
13797;SDS011;6970;51.340;3.240;2023-06-14T07:23:36;8.23;;;4.80;;
13797;SDS011;6970;51.340;3.240;2023-06-14T07:26:03;6.03;;;4.73;;
13797;SDS011;6970;51.340;3.240;2023-06-14T07:31:01;5.87;;;4.50;;
13797;SDS011;6970;51.340;3.240;2023-06-14T07:33:29;4.90;;;4.40;;
13797;SDS011;6970;51.340;3.240;2023-06-14T07:38:26;6.83;;;4.40;;
13797;SDS011;6970;51.340;3.240;2023-06-14T07:40:55;9.30;;;4.30;;
13797;SDS011;6970;51.340;3.240;2023-06-14T07:43:25;6.72;;;4.90;;
13797;SDS011;6970;51.340;3.240;2023-06-14T07:45:58;11.68;;;5.35;;
13797;SDS011;6970;51.340;3.240;2023-06-14T07:48:35;9.68;;;5.00;;
13797;SDS011;6970;51.340;3.240;2023-06-14T07:51:05;7.93;;;5.32;;
13797;SDS011;6970;51.340;3.240;2023-06-14T07:53:33;7.18;;;5.50;;
13797;SDS011;6970;51.340;3.240;2023-06-14T07:56:00;7.88;;;4.75;;
13797;SDS011;6970;51.340;3.240;2023-06-14T07:58:27;6.95;;;5.85;;
13797;SDS011;6970;51.340;3.240;2023-06-14T08:00:57;6.53;;;5.88;;
13797;SDS011;6970;51.340;3.240;2023-06-14T08:03:27;9.77;;;6.63;;
13797;SDS011;6970;51.340;3.240;2023-06-14T08:05:54;7.88;;;5.60;;
13797;SDS011;6970;51.340;3.240;2023-06-14T08:08:23;6.15;;;5.53;;
13797;SDS011;6970;51.340;3.240;2023-06-14T08:10:53;6.43;;;5.85;;
13797;SDS011;6970;51.340;3.240;2023-06-14T08:15:50;7.15;;;5.10;;
13797;SDS011;6970;51.340;3.240;2023-06-14T08:23:19;8.70;;;5.68;;
13797;SDS011;6970;51.340;3.240;2023-06-14T08:25:48;7.03;;;5.32;;
13797;SDS011;6970;51.340;3.240;2023-06-14T08:28:18;6.80;;;5.68;;
13797;SDS011;6970;51.340;3.240;2023-06-14T08:30:45;11.80;;;6.30;;
13797;SDS011;6970;51.340;3.240;2023-06-14T08:33:12;8.07;;;5.10;;
13797;SDS011;6970;51.340;3.240;2023-06-14T08:35:45;8.52;;;5.47;;
13797;SDS011;6970;51.340;3.240;2023-06-14T08:38:14;10.98;;;5.75;;
13797;SDS011;6970;51.340;3.240;2023-06-14T08:40:44;9.10;;;5.57;;
13797;SDS011;6970;51.340;3.240;2023-06-14T08:43:14;11.35;;;6.82;;
13797;SDS011;6970;51.340;3.240;2023-06-14T08:45:42;8.57;;;6.03;;
13797;SDS011;6970;51.340;3.240;2023-06-14T08:48:12;6.97;;;6.20;;
13797;SDS011;6970;51.340;3.240;2023-06-14T08:50:51;7.38;;;5.78;;
13797;SDS011;6970;51.340;3.240;2023-06-14T08:53:31;9.32;;;6.03;;
13797;SDS011;6970;51.340;3.240;2023-06-14T08:56:09;8.00;;;5.90;;
13797;SDS011;6970;51.340;3.240;2023-06-14T08:58:43;6.60;;;5.90;;
13797;SDS011;6970;51.340;3.240;2023-06-14T09:06:15;6.65;;;6.03;;
13797;SDS011;6970;51.340;3.240;2023-06-14T09:11:15;8.25;;;4.93;;
13797;SDS011;6970;51.340;3.240;2023-06-14T09:13:46;9.70;;;6.05;;
13797;SDS011;6970;51.340;3.240;2023-06-14T09:16:15;7.47;;;6.25;;
13797;SDS011;6970;51.340;3.240;2023-06-14T09:18:46;5.57;;;5.07;;
13797;SDS011;6970;51.340;3.240;2023-06-14T09:21:15;5.90;;;5.30;;
13797;SDS011;6970;51.340;3.240;2023-06-14T09:23:48;5.97;;;4.97;;
13797;SDS011;6970;51.340;3.240;2023-06-14T09:26:18;6.25;;;5.75;;
13797;SDS011;6970;51.340;3.240;2023-06-14T09:31:20;5.50;;;5.00;;
13797;SDS011;6970;51.340;3.240;2023-06-14T09:33:55;6.72;;;5.47;;
13797;SDS011;6970;51.340;3.240;2023-06-14T09:36:26;6.22;;;5.40;;
13797;SDS011;6970;51.340;3.240;2023-06-14T09:41:36;6.13;;;5.50;;
13797;SDS011;6970;51.340;3.240;2023-06-14T09:44:08;7.72;;;5.82;;
13797;SDS011;6970;51.340;3.240;2023-06-14T09:46:42;6.78;;;6.03;;
13797;SDS011;6970;51.340;3.240;2023-06-14T09:49:12;5.60;;;4.88;;
13797;SDS011;6970;51.340;3.240;2023-06-14T09:51:42;7.65;;;5.97;;
13797;SDS011;6970;51.340;3.240;2023-06-14T09:54:22;8.68;;;5.65;;
13797;SDS011;6970;51.340;3.240;2023-06-14T09:59:22;6.10;;;5.50;;
13797;SDS011;6970;51.340;3.240;2023-06-14T10:04:56;5.85;;;5.35;;
13797;SDS011;6970;51.340;3.240;2023-06-14T10:07:31;6.75;;;6.03;;
13797;SDS011;6970;51.340;3.240;2023-06-14T10:10:05;6.03;;;5.60;;
13797;SDS011;6970;51.340;3.240;2023-06-14T10:12:36;5.85;;;5.13;;
13797;SDS011;6970;51.340;3.240;2023-06-14T10:15:07;7.55;;;6.57;;
13797;SDS011;6970;51.340;3.240;2023-06-14T10:20:20;6.85;;;5.50;;
13797;SDS011;6970;51.340;3.240;2023-06-14T10:23:06;6.28;;;5.05;;
13797;SDS011;6970;51.340;3.240;2023-06-14T10:25:39;5.95;;;4.65;;
13797;SDS011;6970;51.340;3.240;2023-06-14T10:28:16;5.35;;;4.85;;
13797;SDS011;6970;51.340;3.240;2023-06-14T10:31:01;8.25;;;5.65;;
13797;SDS011;6970;51.340;3.240;2023-06-14T10:33:49;5.90;;;4.72;;
13797;SDS011;6970;51.340;3.240;2023-06-14T10:41:51;6.70;;;6.05;;
13797;SDS011;6970;51.340;3.240;2023-06-14T10:46:53;9.38;;;5.85;;
13797;SDS011;6970;51.340;3.240;2023-06-14T10:49:42;11.00;;;6.10;;
13797;SDS011;6970;51.340;3.240;2023-06-14T10:52:14;9.23;;;5.68;;
13797;SDS011;6970;51.340;3.240;2023-06-14T10:55:05;7.13;;;6.28;;
13797;SDS011;6970;51.340;3.240;2023-06-14T10:57:44;6.35;;;5.72;;
13797;SDS011;6970;51.340;3.240;2023-06-14T11:00:22;8.50;;;6.03;;
13797;SDS011;6970;51.340;3.240;2023-06-14T11:11:30;8.27;;;6.38;;
13797;SDS011;6970;51.340;3.240;2023-06-14T11:14:02;7.63;;;5.85;;
13797;SDS011;6970;51.340;3.240;2023-06-14T11:16:31;7.45;;;5.57;;
13797;SDS011;6970;51.340;3.240;2023-06-14T11:19:05;7.35;;;6.03;;
13797;SDS011;6970;51.340;3.240;2023-06-14T11:21:34;8.50;;;7.38;;
13797;SDS011;6970;51.340;3.240;2023-06-14T11:24:14;8.43;;;6.13;;
13797;SDS011;6970;51.340;3.240;2023-06-14T11:26:47;7.18;;;6.28;;
13797;SDS011;6970;51.340;3.240;2023-06-14T11:29:19;6.43;;;5.80;;
13797;SDS011;6970;51.340;3.240;2023-06-14T11:31:48;8.95;;;7.10;;
13797;SDS011;6970;51.340;3.240;2023-06-14T11:34:15;9.13;;;6.70;;
13797;SDS011;6970;51.340;3.240;2023-06-14T11:36:44;13.35;;;7.57;;
13797;SDS011;6970;51.340;3.240;2023-06-14T11:41:44;8.98;;;6.72;;
13797;SDS011;6970;51.340;3.240;2023-06-14T11:44:17;11.05;;;6.70;;
13797;SDS011;6970;51.340;3.240;2023-06-14T11:46:50;8.85;;;6.97;;
13797;SDS011;6970;51.340;3.240;2023-06-14T11:51:51;10.80;;;6.70;;
13797;SDS011;6970;51.340;3.240;2023-06-14T11:54:19;7.50;;;6.78;;
13797;SDS011;6970;51.340;3.240;2023-06-14T11:56:50;12.25;;;6.90;;
13797;SDS011;6970;51.340;3.240;2023-06-14T12:04:24;8.30;;;7.50;;
13797;SDS011;6970;51.340;3.240;2023-06-14T12:06:56;10.43;;;7.65;;
13797;SDS011;6970;51.340;3.240;2023-06-14T12:12:01;8.15;;;7.35;;
13797;SDS011;6970;51.340;3.240;2023-06-14T12:14:30;8.80;;;7.95;;
13797;SDS011;6970;51.340;3.240;2023-06-14T12:17:05;10.15;;;7.80;;
13797;SDS011;6970;51.340;3.240;2023-06-14T12:19:42;14.85;;;9.73;;
13797;SDS011;6970;51.340;3.240;2023-06-14T12:24:46;8.93;;;7.68;;
13797;SDS011;6970;51.340;3.240;2023-06-14T12:27:15;10.05;;;7.40;;
13797;SDS011;6970;51.340;3.240;2023-06-14T12:29:47;11.75;;;7.95;;
13797;SDS011;6970;51.340;3.240;2023-06-14T12:32:29;13.98;;;8.07;;
13797;SDS011;6970;51.340;3.240;2023-06-14T12:37:27;10.60;;;7.18;;
13797;SDS011;6970;51.340;3.240;2023-06-14T12:42:26;11.35;;;8.77;;
13797;SDS011;6970;51.340;3.240;2023-06-14T12:44:55;9.43;;;8.02;;
13797;SDS011;6970;51.340;3.240;2023-06-14T12:47:25;10.50;;;7.93;;
13797;SDS011;6970;51.340;3.240;2023-06-14T12:49:55;10.10;;;9.10;;
13797;SDS011;6970;51.340;3.240;2023-06-14T12:52:23;9.15;;;7.57;;
13797;SDS011;6970;51.340;3.240;2023-06-14T12:54:51;9.75;;;7.95;;
13797;SDS011;6970;51.340;3.240;2023-06-14T12:57:20;9.52;;;7.63;;
13797;SDS011;6970;51.340;3.240;2023-06-14T12:59:51;8.75;;;7.95;;
13797;SDS011;6970;51.340;3.240;2023-06-14T13:02:20;9.68;;;8.60;;
13797;SDS011;6970;51.340;3.240;2023-06-14T13:04:57;9.82;;;8.55;;
13797;SDS011;6970;51.340;3.240;2023-06-14T13:09:58;7.85;;;7.07;;
13797;SDS011;6970;51.340;3.240;2023-06-14T13:12:27;9.02;;;7.97;;
13797;SDS011;6970;51.340;3.240;2023-06-14T13:14:57;9.00;;;7.18;;
13797;SDS011;6970;51.340;3.240;2023-06-14T13:17:25;7.35;;;6.65;;
13797;SDS011;6970;51.340;3.240;2023-06-14T13:19:56;9.70;;;7.13;;
13797;SDS011;6970;51.340;3.240;2023-06-14T13:22:25;9.07;;;7.80;;
13797;SDS011;6970;51.340;3.240;2023-06-14T13:24:53;10.63;;;6.72;;
13797;SDS011;6970;51.340;3.240;2023-06-14T13:27:20;7.93;;;6.32;;
13797;SDS011;6970;51.340;3.240;2023-06-14T13:29:49;8.15;;;6.15;;
13797;SDS011;6970;51.340;3.240;2023-06-14T13:34:55;10.98;;;7.30;;
13797;SDS011;6970;51.340;3.240;2023-06-14T13:37:25;7.60;;;6.90;;
13797;SDS011;6970;51.340;3.240;2023-06-14T13:39:53;10.40;;;6.18;;
13797;SDS011;6970;51.340;3.240;2023-06-14T13:42:21;9.98;;;7.35;;
13797;SDS011;6970;51.340;3.240;2023-06-14T13:44:51;6.82;;;6.13;;
13797;SDS011;6970;51.340;3.240;2023-06-14T13:47:32;10.32;;;6.45;;
13797;SDS011;6970;51.340;3.240;2023-06-14T13:50:04;9.73;;;6.28;;
13797;SDS011;6970;51.340;3.240;2023-06-14T13:52:32;7.88;;;6.10;;
13797;SDS011;6970;51.340;3.240;2023-06-14T13:55:03;8.60;;;5.90;;
13797;SDS011;6970;51.340;3.240;2023-06-14T13:57:37;10.25;;;6.00;;
13797;SDS011;6970;51.340;3.240;2023-06-14T14:00:04;9.32;;;6.13;;
13797;SDS011;6970;51.340;3.240;2023-06-14T14:02:35;8.93;;;6.22;;
13797;SDS011;6970;51.340;3.240;2023-06-14T14:05:02;6.63;;;5.97;;
13797;SDS011;6970;51.340;3.240;2023-06-14T14:07:33;8.65;;;4.97;;
13797;SDS011;6970;51.340;3.240;2023-06-14T14:15:03;6.63;;;5.63;;
13797;SDS011;6970;51.340;3.240;2023-06-14T14:17:31;9.32;;;5.35;;
13797;SDS011;6970;51.340;3.240;2023-06-14T14:19:59;6.03;;;5.40;;
13797;SDS011;6970;51.340;3.240;2023-06-14T14:22:28;9.30;;;6.18;;
13797;SDS011;6970;51.340;3.240;2023-06-14T14:24:55;6.65;;;5.32;;
13797;SDS011;6970;51.340;3.240;2023-06-14T14:27:22;6.07;;;4.32;;
13797;SDS011;6970;51.340;3.240;2023-06-14T14:29:49;4.93;;;4.53;;
13797;SDS011;6970;51.340;3.240;2023-06-14T14:32:16;5.88;;;5.05;;
13797;SDS011;6970;51.340;3.240;2023-06-14T14:34:43;5.93;;;4.38;;
13797;SDS011;6970;51.340;3.240;2023-06-14T14:37:12;5.22;;;4.68;;
13797;SDS011;6970;51.340;3.240;2023-06-14T14:39:41;6.68;;;5.22;;
13797;SDS011;6970;51.340;3.240;2023-06-14T14:42:08;5.32;;;4.50;;
13797;SDS011;6970;51.340;3.240;2023-06-14T14:47:10;8.40;;;4.55;;
13797;SDS011;6970;51.340;3.240;2023-06-14T14:49:40;5.57;;;3.90;;
13797;SDS011;6970;51.340;3.240;2023-06-14T14:54:50;6.70;;;3.97;;
13797;SDS011;6970;51.340;3.240;2023-06-14T14:57:18;4.05;;;3.75;;
13797;SDS011;6970;51.340;3.240;2023-06-14T14:59:46;5.07;;;3.95;;
13797;SDS011;6970;51.340;3.240;2023-06-14T15:02:13;6.25;;;3.45;;
13797;SDS011;6970;51.340;3.240;2023-06-14T15:07:12;6.97;;;4.00;;
13797;SDS011;6970;51.340;3.240;2023-06-14T15:12:09;6.57;;;3.28;;
13797;SDS011;6970;51.340;3.240;2023-06-14T15:17:09;5.40;;;3.72;;
13797;SDS011;6970;51.340;3.240;2023-06-14T15:19:38;5.40;;;3.50;;
13797;SDS011;6970;51.340;3.240;2023-06-14T15:22:07;6.95;;;3.83;;
13797;SDS011;6970;51.340;3.240;2023-06-14T15:24:37;5.65;;;3.85;;
13797;SDS011;6970;51.340;3.240;2023-06-14T15:27:12;4.50;;;3.20;;
13797;SDS011;6970;51.340;3.240;2023-06-14T15:29:44;6.72;;;3.67;;
13797;SDS011;6970;51.340;3.240;2023-06-14T15:32:16;4.85;;;2.80;;
13797;SDS011;6970;51.340;3.240;2023-06-14T15:34:43;8.63;;;4.07;;
13797;SDS011;6970;51.340;3.240;2023-06-14T15:39:40;6.30;;;3.40;;
13797;SDS011;6970;51.340;3.240;2023-06-14T15:42:08;8.52;;;2.95;;
13797;SDS011;6970;51.340;3.240;2023-06-14T15:44:37;5.32;;;3.00;;
13797;SDS011;6970;51.340;3.240;2023-06-14T15:47:05;3.95;;;2.60;;
13797;SDS011;6970;51.340;3.240;2023-06-14T15:49:33;9.82;;;3.65;;
13797;SDS011;6970;51.340;3.240;2023-06-14T15:52:01;10.00;;;2.97;;
13797;SDS011;6970;51.340;3.240;2023-06-14T15:54:31;6.82;;;3.30;;
13797;SDS011;6970;51.340;3.240;2023-06-14T15:59:28;5.28;;;3.35;;
13797;SDS011;6970;51.340;3.240;2023-06-14T16:01:56;6.78;;;2.95;;
13797;SDS011;6970;51.340;3.240;2023-06-14T16:04:25;5.93;;;3.15;;
13797;SDS011;6970;51.340;3.240;2023-06-14T16:06:53;7.75;;;3.55;;
13797;SDS011;6970;51.340;3.240;2023-06-14T16:09:21;8.05;;;3.10;;
13797;SDS011;6970;51.340;3.240;2023-06-14T16:11:50;7.13;;;2.80;;
13797;SDS011;6970;51.340;3.240;2023-06-14T16:14:17;5.18;;;2.78;;
13797;SDS011;6970;51.340;3.240;2023-06-14T16:16:46;4.90;;;2.58;;
13797;SDS011;6970;51.340;3.240;2023-06-14T16:19:14;7.18;;;2.80;;
13797;SDS011;6970;51.340;3.240;2023-06-14T16:21:41;7.00;;;3.28;;
13797;SDS011;6970;51.340;3.240;2023-06-14T16:24:08;3.53;;;2.90;;
13797;SDS011;6970;51.340;3.240;2023-06-14T16:26:36;3.35;;;2.90;;
13797;SDS011;6970;51.340;3.240;2023-06-14T16:29:09;6.10;;;2.75;;
13797;SDS011;6970;51.340;3.240;2023-06-14T16:34:07;5.50;;;3.00;;
13797;SDS011;6970;51.340;3.240;2023-06-14T16:36:39;4.93;;;2.63;;
13797;SDS011;6970;51.340;3.240;2023-06-14T16:39:09;5.15;;;2.95;;
13797;SDS011;6970;51.340;3.240;2023-06-14T16:41:37;4.65;;;2.67;;
13797;SDS011;6970;51.340;3.240;2023-06-14T16:44:06;10.70;;;3.20;;
13797;SDS011;6970;51.340;3.240;2023-06-14T16:46:36;6.13;;;2.58;;
13797;SDS011;6970;51.340;3.240;2023-06-14T16:49:05;7.75;;;3.72;;
13797;SDS011;6970;51.340;3.240;2023-06-14T16:51:33;5.47;;;2.88;;
13797;SDS011;6970;51.340;3.240;2023-06-14T16:56:32;6.40;;;3.13;;
13797;SDS011;6970;51.340;3.240;2023-06-14T16:59:00;6.05;;;2.55;;
13797;SDS011;6970;51.340;3.240;2023-06-14T17:01:30;6.68;;;3.00;;
13797;SDS011;6970;51.340;3.240;2023-06-14T17:06:39;7.03;;;3.08;;
13797;SDS011;6970;51.340;3.240;2023-06-14T17:09:09;3.72;;;2.40;;
13797;SDS011;6970;51.340;3.240;2023-06-14T17:11:39;4.25;;;2.35;;
13797;SDS011;6970;51.340;3.240;2023-06-14T17:14:07;9.23;;;3.25;;
13797;SDS011;6970;51.340;3.240;2023-06-14T17:16:35;10.32;;;2.83;;
13797;SDS011;6970;51.340;3.240;2023-06-14T17:19:04;7.40;;;2.95;;
13797;SDS011;6970;51.340;3.240;2023-06-14T17:21:33;4.13;;;2.30;;
13797;SDS011;6970;51.340;3.240;2023-06-14T17:24:01;7.65;;;2.85;;
13797;SDS011;6970;51.340;3.240;2023-06-14T17:26:31;5.55;;;2.85;;
13797;SDS011;6970;51.340;3.240;2023-06-14T17:31:30;6.40;;;2.55;;
13797;SDS011;6970;51.340;3.240;2023-06-14T17:33:58;5.45;;;2.70;;
13797;SDS011;6970;51.340;3.240;2023-06-14T17:36:25;4.05;;;2.92;;
13797;SDS011;6970;51.340;3.240;2023-06-14T17:41:25;7.72;;;2.78;;
13797;SDS011;6970;51.340;3.240;2023-06-14T17:43:52;6.28;;;2.28;;
13797;SDS011;6970;51.340;3.240;2023-06-14T17:46:19;6.57;;;2.28;;
13797;SDS011;6970;51.340;3.240;2023-06-14T17:48:46;4.22;;;2.05;;
13797;SDS011;6970;51.340;3.240;2023-06-14T17:51:15;6.03;;;2.22;;
13797;SDS011;6970;51.340;3.240;2023-06-14T17:56:13;5.93;;;2.65;;
13797;SDS011;6970;51.340;3.240;2023-06-14T17:58:40;6.38;;;2.60;;
13797;SDS011;6970;51.340;3.240;2023-06-14T18:01:07;5.15;;;2.72;;
13797;SDS011;6970;51.340;3.240;2023-06-14T18:03:34;9.00;;;2.53;;
13797;SDS011;6970;51.340;3.240;2023-06-14T18:06:01;6.82;;;2.40;;
13797;SDS011;6970;51.340;3.240;2023-06-14T18:08:31;7.80;;;2.30;;
13797;SDS011;6970;51.340;3.240;2023-06-14T18:10:58;4.80;;;2.33;;
13797;SDS011;6970;51.340;3.240;2023-06-14T18:13:25;5.13;;;2.38;;
13797;SDS011;6970;51.340;3.240;2023-06-14T18:15:55;7.73;;;3.03;;